createdAt,value
2018-12-06T00:01:53.624Z,9.41
2018-12-06T00:04:22.371Z,9.51
2018-12-06T00:06:51.075Z,9.43
2018-12-06T00:09:19.830Z,9.35
2018-12-06T00:11:48.590Z,9.39
2018-12-06T00:14:17.311Z,9.56
2018-12-06T00:16:55.215Z,9.38
2018-12-06T00:19:23.981Z,9.32
2018-12-06T00:21:52.746Z,9.41
2018-12-06T00:24:21.437Z,9.54
2018-12-06T00:26:50.167Z,9.46
2018-12-06T00:29:18.827Z,9.56
2018-12-06T00:31:47.579Z,9.62
2018-12-06T00:34:16.306Z,9.45
2018-12-06T00:36:45.315Z,9.03
2018-12-06T00:39:14.014Z,9.45
2018-12-06T00:41:42.750Z,9.55
2018-12-06T00:44:11.487Z,9.68
2018-12-06T00:46:40.242Z,9.61
2018-12-06T00:49:08.994Z,9.62
2018-12-06T00:51:37.651Z,9.57
2018-12-06T00:54:06.381Z,9.44
2018-12-06T00:56:35.050Z,9.62
2018-12-06T00:59:03.771Z,9.63
2018-12-06T01:01:32.486Z,9.63
2018-12-06T01:04:01.198Z,9.74
2018-12-06T01:06:29.987Z,9.82
2018-12-06T01:08:58.742Z,9.89
2018-12-06T01:11:27.458Z,9.83
2018-12-06T01:13:56.187Z,9.81
2018-12-06T01:16:24.922Z,9.80
2018-12-06T01:18:53.726Z,9.71
2018-12-06T01:21:22.382Z,9.65
2018-12-06T01:23:51.055Z,9.74
2018-12-06T01:26:19.826Z,9.76
2018-12-06T01:28:48.559Z,9.81
2018-12-06T01:31:17.227Z,9.80
2018-12-06T01:33:45.889Z,9.79
2018-12-06T01:36:14.542Z,9.78
2018-12-06T01:38:43.271Z,9.73
2018-12-06T01:41:11.974Z,9.70
2018-12-06T01:43:40.698Z,9.66
2018-12-06T01:46:09.421Z,9.69
2018-12-06T01:48:38.340Z,9.59
2018-12-06T01:51:07.043Z,9.71
2018-12-06T01:53:35.719Z,9.69
2018-12-06T01:56:04.430Z,9.63
2018-12-06T01:58:33.141Z,9.61
2018-12-06T02:01:01.886Z,9.63
2018-12-06T02:03:30.547Z,9.61
2018-12-06T02:05:59.194Z,9.51
2018-12-06T02:08:27.931Z,9.62
2018-12-06T02:10:56.648Z,9.56
2018-12-06T02:13:25.370Z,9.56
2018-12-06T02:15:54.134Z,9.53
2018-12-06T02:18:22.806Z,9.52
2018-12-06T02:20:51.498Z,9.60
2018-12-06T02:23:20.230Z,9.59
2018-12-06T02:25:48.969Z,9.57
2018-12-06T02:28:17.671Z,9.66
2018-12-06T02:30:46.377Z,9.62
2018-12-06T02:33:15.179Z,9.65
2018-12-06T02:35:43.943Z,9.61
2018-12-06T02:38:12.691Z,9.58
2018-12-06T02:40:41.414Z,9.57
2018-12-06T02:43:10.126Z,9.60
2018-12-06T02:45:38.847Z,9.70
2018-12-06T02:48:07.760Z,9.67
2018-12-06T02:50:36.543Z,9.70
2018-12-06T02:53:05.414Z,9.71
2018-12-06T02:55:34.078Z,9.75
2018-12-06T02:58:02.762Z,9.69
2018-12-06T03:00:31.499Z,9.59
2018-12-06T03:03:00.241Z,9.53
2018-12-06T03:05:29.006Z,9.51
2018-12-06T03:07:57.707Z,9.55
2018-12-06T03:10:26.420Z,9.56
2018-12-06T03:12:55.143Z,9.60
2018-12-06T03:15:23.857Z,9.51
2018-12-06T03:17:54.504Z,9.51
2018-12-06T03:20:23.264Z,9.54
2018-12-06T03:22:51.982Z,9.68
2018-12-06T03:25:20.708Z,9.63
2018-12-06T03:27:49.387Z,9.58
2018-12-06T03:30:18.185Z,9.64
2018-12-06T03:32:46.896Z,9.62
2018-12-06T03:35:15.639Z,9.61
2018-12-06T03:37:44.295Z,9.58
2018-12-06T03:40:13.115Z,9.60
2018-12-06T03:42:41.840Z,9.59
2018-12-06T03:45:10.595Z,9.65
2018-12-06T03:47:39.310Z,9.63
2018-12-06T03:50:08.032Z,9.71
2018-12-06T03:52:36.894Z,9.72
2018-12-06T03:55:05.602Z,9.74
2018-12-06T03:57:34.280Z,9.66
2018-12-06T04:00:03.152Z,9.71
2018-12-06T04:02:31.911Z,9.74
2018-12-06T04:05:00.554Z,9.77
2018-12-06T04:07:29.268Z,9.78
2018-12-06T04:09:57.984Z,9.72
2018-12-06T04:12:26.776Z,9.85
2018-12-06T04:14:55.443Z,9.96
2018-12-06T04:17:24.151Z,9.90
2018-12-06T04:19:52.847Z,9.82
2018-12-06T04:22:21.499Z,9.80
2018-12-06T04:24:50.223Z,9.89
2018-12-06T04:27:18.943Z,9.83
2018-12-06T04:29:47.594Z,9.84
2018-12-06T04:32:17.560Z,9.80
2018-12-06T04:34:46.500Z,9.75
2018-12-06T04:37:15.295Z,9.68
2018-12-06T04:39:43.963Z,9.78
2018-12-06T04:42:12.716Z,9.78
2018-12-06T04:44:42.226Z,9.72
2018-12-06T04:47:10.944Z,9.72
2018-12-06T04:49:39.659Z,9.86
2018-12-06T04:52:08.512Z,9.78
2018-12-06T04:54:37.208Z,9.80
2018-12-06T04:57:05.919Z,9.80
2018-12-06T04:59:34.686Z,9.72
2018-12-06T05:02:03.467Z,9.70
2018-12-06T05:04:32.248Z,9.71
2018-12-06T05:07:01.647Z,9.69
2018-12-06T05:09:30.327Z,9.66
2018-12-06T05:11:59.158Z,9.69
2018-12-06T05:14:27.807Z,9.70
2018-12-06T05:16:56.541Z,9.70
2018-12-06T05:19:25.267Z,9.74
2018-12-06T05:21:53.910Z,9.72
2018-12-06T05:24:22.671Z,9.59
2018-12-06T05:26:51.435Z,9.53
2018-12-06T05:29:21.119Z,9.52
2018-12-06T05:31:49.845Z,9.58
2018-12-06T05:34:18.502Z,9.59
2018-12-06T05:36:47.231Z,9.54
2018-12-06T05:39:16.003Z,9.54
2018-12-06T05:41:44.739Z,9.64
2018-12-06T05:44:13.454Z,9.64
2018-12-06T05:46:42.199Z,9.60
2018-12-06T05:49:11.027Z,9.63
2018-12-06T05:51:40.442Z,9.74
2018-12-06T05:54:09.187Z,9.72
2018-12-06T05:56:37.931Z,9.81
2018-12-06T05:59:06.642Z,9.76
2018-12-06T06:01:35.362Z,9.75
2018-12-06T06:04:04.155Z,9.73
2018-12-06T06:06:32.806Z,9.73
2018-12-06T06:09:01.471Z,9.78
2018-12-06T06:11:30.514Z,9.83
2018-12-06T06:13:59.280Z,9.86
2018-12-06T06:16:27.946Z,9.99
2018-12-06T06:18:56.671Z,9.93
2018-12-06T06:21:25.391Z,9.95
2018-12-06T06:23:54.193Z,10.04
2018-12-06T06:26:23.047Z,10.05
2018-12-06T06:28:51.734Z,10.02
2018-12-06T06:31:20.466Z,9.96
2018-12-06T06:33:49.218Z,9.97
2018-12-06T06:36:17.971Z,9.94
2018-12-06T06:38:46.786Z,9.96
2018-12-06T06:41:15.534Z,10.06
2018-12-06T06:43:44.222Z,10.07
2018-12-06T06:46:12.902Z,10.07
2018-12-06T06:48:41.622Z,10.09
2018-12-06T06:51:10.339Z,10.07
2018-12-06T06:53:39.075Z,10.13
2018-12-06T06:56:07.899Z,10.09
2018-12-06T06:58:36.570Z,10.00
2018-12-06T07:01:05.282Z,9.88
2018-12-06T07:03:33.995Z,10.04
2018-12-06T07:06:02.719Z,9.98
2018-12-06T07:08:31.387Z,9.98
2018-12-06T07:11:00.055Z,9.95
2018-12-06T07:13:28.735Z,9.84
2018-12-06T07:15:57.386Z,9.90
2018-12-06T07:18:26.098Z,9.92
2018-12-06T07:20:54.782Z,9.93
2018-12-06T07:23:23.552Z,9.95
2018-12-06T07:25:52.343Z,10.12
2018-12-06T07:28:21.051Z,10.19
2018-12-06T07:30:49.834Z,10.16
2018-12-06T07:33:18.562Z,10.20
2018-12-06T07:35:47.283Z,10.22
2018-12-06T07:38:15.974Z,10.26
2018-12-06T07:40:44.630Z,10.15
2018-12-06T07:43:13.275Z,10.20
2018-12-06T07:45:41.934Z,10.29
2018-12-06T07:48:10.668Z,10.31
2018-12-06T07:50:39.326Z,10.37
2018-12-06T07:53:08.042Z,10.42
2018-12-06T07:55:36.699Z,10.45
2018-12-06T07:58:05.351Z,10.45
2018-12-06T08:00:34.150Z,10.53
2018-12-06T08:03:02.838Z,10.62
2018-12-06T08:05:31.511Z,10.57
2018-12-06T08:08:00.175Z,10.58
2018-12-06T08:10:28.839Z,10.60
2018-12-06T08:12:57.527Z,10.60
2018-12-06T08:15:26.207Z,10.60
2018-12-06T08:17:54.955Z,10.57
2018-12-06T08:20:23.671Z,10.50
2018-12-06T08:22:52.391Z,10.54
2018-12-06T08:25:21.058Z,10.54
2018-12-06T08:27:49.712Z,10.53
2018-12-06T08:30:18.362Z,10.62
2018-12-06T08:32:47.091Z,10.64
2018-12-06T08:35:15.772Z,10.77
2018-12-06T08:37:44.537Z,10.82
2018-12-06T08:40:13.202Z,10.84
2018-12-06T08:42:45.613Z,10.70
2018-12-06T08:45:12.664Z,10.70
2018-12-06T08:47:41.434Z,10.59
2018-12-06T08:50:10.150Z,10.54
2018-12-06T08:52:39.332Z,10.57
2018-12-06T08:55:08.122Z,10.67
2018-12-06T08:57:36.834Z,10.65
2018-12-06T09:00:07.482Z,10.69
2018-12-06T09:02:36.163Z,10.76
2018-12-06T09:05:05.654Z,10.77
2018-12-06T09:07:34.435Z,10.86
2018-12-06T09:10:03.398Z,10.84
2018-12-06T09:12:32.134Z,10.88
2018-12-06T09:15:00.885Z,10.88
2018-12-06T09:17:29.634Z,10.94
2018-12-06T09:19:58.368Z,10.94
2018-12-06T09:22:27.098Z,11.04
2018-12-06T09:24:55.818Z,11.02
2018-12-06T09:27:24.545Z,11.12
2018-12-06T09:29:53.274Z,11.10
2018-12-06T09:32:22.075Z,11.16
2018-12-06T09:34:50.738Z,11.17
2018-12-06T09:37:19.447Z,11.23
2018-12-06T09:39:57.098Z,11.18
2018-12-06T09:42:25.819Z,11.08
2018-12-06T09:44:54.473Z,11.07
2018-12-06T09:47:23.269Z,11.11
2018-12-06T09:49:51.993Z,11.07
2018-12-06T09:52:20.787Z,11.05
2018-12-06T09:54:49.544Z,11.10
2018-12-06T09:57:18.263Z,11.14
2018-12-06T09:59:47.143Z,11.19
2018-12-06T10:02:15.799Z,11.23
2018-12-06T10:04:44.514Z,11.23
2018-12-06T10:07:13.231Z,11.30
2018-12-06T10:09:41.950Z,11.38
2018-12-06T10:12:10.690Z,11.38
2018-12-06T10:14:39.425Z,11.36
2018-12-06T10:17:09.226Z,11.36
2018-12-06T10:19:37.937Z,11.40
2018-12-06T10:22:06.698Z,11.36
2018-12-06T10:24:35.490Z,11.49
2018-12-06T10:27:04.214Z,11.52
2018-12-06T10:29:32.930Z,11.52
2018-12-06T10:32:01.714Z,11.53
2018-12-06T10:34:30.424Z,11.49
2018-12-06T10:36:59.151Z,11.53
2018-12-06T10:39:27.877Z,11.54
2018-12-06T10:41:56.588Z,11.67
2018-12-06T10:44:28.971Z,11.78
2018-12-06T10:46:57.750Z,11.85
2018-12-06T10:49:26.531Z,11.84
2018-12-06T10:51:55.264Z,11.96
2018-12-06T10:54:24.003Z,12.05
2018-12-06T10:56:52.748Z,12.10
2018-12-06T10:59:21.466Z,12.07
2018-12-06T11:01:55.603Z,12.12
2018-12-06T11:04:28.462Z,12.01
2018-12-06T11:06:57.212Z,12.10
2018-12-06T11:09:25.934Z,12.11
2018-12-06T11:11:54.735Z,12.20
2018-12-06T11:14:23.495Z,12.26
2018-12-06T11:16:52.239Z,12.34
2018-12-06T11:19:20.943Z,12.39
2018-12-06T11:21:49.654Z,12.43
2018-12-06T11:24:19.126Z,12.50
2018-12-06T11:26:47.795Z,12.53
2018-12-06T11:29:16.519Z,12.50
2018-12-06T11:31:45.185Z,12.51
2018-12-06T11:34:13.942Z,12.56
2018-12-06T11:36:42.597Z,12.54
2018-12-06T11:39:11.323Z,12.50
2018-12-06T11:41:43.316Z,12.45
2018-12-06T11:44:10.751Z,12.37
2018-12-06T11:46:39.474Z,12.33
2018-12-06T11:49:08.226Z,12.29
2018-12-06T11:51:36.938Z,12.36
2018-12-06T11:54:05.695Z,12.31
2018-12-06T11:56:34.411Z,12.35
2018-12-06T11:59:03.195Z,12.36
2018-12-06T12:01:31.930Z,12.32
2018-12-06T12:04:00.614Z,12.35
2018-12-06T12:06:29.350Z,11.88
2018-12-06T12:08:58.019Z,12.35
2018-12-06T12:11:26.746Z,12.44
2018-12-06T12:13:55.463Z,12.43
2018-12-06T12:16:24.184Z,12.41
2018-12-06T12:18:52.883Z,12.39
2018-12-06T12:21:21.619Z,12.47
2018-12-06T12:23:50.301Z,12.55
2018-12-06T12:26:19.038Z,12.56
2018-12-06T12:28:47.706Z,12.54
2018-12-06T12:31:17.087Z,12.65
2018-12-06T12:33:45.826Z,12.65
2018-12-06T12:36:14.523Z,12.59
2018-12-06T12:38:43.267Z,12.61
2018-12-06T12:41:13.018Z,12.66
2018-12-06T12:43:41.743Z,12.64
2018-12-06T12:46:10.542Z,12.68
2018-12-06T12:48:39.212Z,12.72
2018-12-06T12:51:07.932Z,12.81
2018-12-06T12:53:36.653Z,12.96
2018-12-06T12:56:05.437Z,12.97
2018-12-06T12:58:34.122Z,13.10
2018-12-06T13:01:02.842Z,13.16
2018-12-06T13:03:31.563Z,13.15
2018-12-06T13:06:00.226Z,13.19
2018-12-06T13:08:28.886Z,13.27
2018-12-06T13:10:57.602Z,13.33
2018-12-06T13:13:26.398Z,13.37
2018-12-06T13:15:56.058Z,13.37
2018-12-06T13:18:24.784Z,13.38
2018-12-06T13:20:53.642Z,13.41
2018-12-06T13:23:22.386Z,13.44
2018-12-06T13:25:51.094Z,13.42
2018-12-06T13:28:19.806Z,13.45
2018-12-06T13:30:48.531Z,13.43
2018-12-06T13:33:17.274Z,13.48
2018-12-06T13:35:45.987Z,13.46
2018-12-06T13:38:15.421Z,13.59
2018-12-06T13:40:44.205Z,13.54
2018-12-06T13:43:12.894Z,13.53
2018-12-06T13:45:41.654Z,13.47
2018-12-06T13:48:10.310Z,13.52
2018-12-06T13:50:39.115Z,13.61
2018-12-06T13:53:07.873Z,13.66
2018-12-06T13:55:36.566Z,13.76
2018-12-06T13:58:05.323Z,13.74
2018-12-06T14:00:34.870Z,13.61
2018-12-06T14:03:03.775Z,13.48
2018-12-06T14:05:32.506Z,13.44
2018-12-06T14:08:01.228Z,13.50
2018-12-06T14:10:29.994Z,13.53
2018-12-06T14:12:58.667Z,13.60
2018-12-06T14:15:27.389Z,13.51
2018-12-06T14:17:56.133Z,13.62
2018-12-06T14:20:24.839Z,13.59
2018-12-06T14:22:54.023Z,13.61
2018-12-06T14:25:22.903Z,13.52
2018-12-06T14:27:51.623Z,13.50
2018-12-06T14:30:20.371Z,13.50
2018-12-06T14:32:49.158Z,13.47
2018-12-06T14:35:17.870Z,13.48
2018-12-06T14:37:46.572Z,13.42
2018-12-06T14:40:15.310Z,13.53
2018-12-06T14:42:44.042Z,13.57
2018-12-06T14:45:13.555Z,13.52
2018-12-06T14:47:42.259Z,13.64
2018-12-06T14:50:10.974Z,13.65
2018-12-06T14:52:39.694Z,13.64
2018-12-06T14:55:08.581Z,13.56
2018-12-06T14:57:37.295Z,13.56
2018-12-06T15:00:08.255Z,13.65
2018-12-06T15:02:37.032Z,13.51
2018-12-06T15:05:07.685Z,13.55
2018-12-06T15:07:36.419Z,13.56
2018-12-06T15:10:06.398Z,13.58
2018-12-06T15:12:35.166Z,13.59
2018-12-06T15:15:04.736Z,13.58
2018-12-06T15:17:33.503Z,13.46
2018-12-06T15:20:02.298Z,13.53
2018-12-06T15:22:31.008Z,13.58
2018-12-06T15:25:00.120Z,13.64
2018-12-06T15:28:00.022Z,13.71
2018-12-06T15:30:28.743Z,13.62
2018-12-06T15:32:57.444Z,13.60
2018-12-06T15:35:26.163Z,13.64
2018-12-06T15:37:54.864Z,13.64
2018-12-06T15:40:23.563Z,13.56
2018-12-06T15:42:54.040Z,13.60
2018-12-06T15:45:22.894Z,13.59
2018-12-06T15:47:51.623Z,13.67
2018-12-06T15:50:20.340Z,13.67
2018-12-06T15:52:49.006Z,13.69
2018-12-06T15:55:17.814Z,13.74
2018-12-06T15:57:47.010Z,13.75
2018-12-06T16:00:16.598Z,13.73
2018-12-06T16:02:45.323Z,13.76
2018-12-06T16:05:14.047Z,13.77
2018-12-06T16:07:42.787Z,13.95
2018-12-06T16:10:11.510Z,13.89
2018-12-06T16:12:40.248Z,13.88
2018-12-06T16:15:09.138Z,13.98
2018-12-06T16:17:43.937Z,13.97
2018-12-06T16:20:15.507Z,13.91
2018-12-06T16:22:46.094Z,13.88
2018-12-06T16:25:14.786Z,13.85
2018-12-06T16:27:43.507Z,14.03
2018-12-06T16:30:12.260Z,14.05
2018-12-06T16:32:40.979Z,14.07
2018-12-06T16:35:09.906Z,13.88
2018-12-06T16:37:38.610Z,13.98
2018-12-06T16:40:07.384Z,14.01
2018-12-06T16:42:36.094Z,14.06
2018-12-06T16:45:05.575Z,14.12
2018-12-06T16:47:34.304Z,14.03
2018-12-06T16:50:03.323Z,14.16
2018-12-06T16:52:32.110Z,14.12
2018-12-06T16:55:00.798Z,13.99
2018-12-06T16:57:29.514Z,13.96
2018-12-06T16:59:58.228Z,13.99
2018-12-06T17:02:26.963Z,13.95
2018-12-06T17:04:55.679Z,13.94
2018-12-06T17:07:24.454Z,14.01
2018-12-06T17:09:53.188Z,14.01
2018-12-06T17:12:22.102Z,13.94
2018-12-06T17:14:50.859Z,14.01
2018-12-06T17:17:19.583Z,13.99
2018-12-06T17:19:48.381Z,13.95
2018-12-06T17:22:17.038Z,13.91
2018-12-06T17:24:45.755Z,13.97
2018-12-06T17:27:14.520Z,13.99
2018-12-06T17:29:43.198Z,13.97
2018-12-06T17:32:11.911Z,14.00
2018-12-06T17:34:41.559Z,14.01
2018-12-06T17:37:10.269Z,14.02
2018-12-06T17:39:39.002Z,13.91
2018-12-06T17:42:07.834Z,13.95
2018-12-06T17:44:37.696Z,13.98
2018-12-06T17:47:07.045Z,14.04
2018-12-06T17:49:35.763Z,13.99
2018-12-06T17:52:04.559Z,14.10
2018-12-06T17:54:33.279Z,14.11
2018-12-06T17:57:02.001Z,14.07
2018-12-06T17:59:30.767Z,14.09
2018-12-06T18:01:59.515Z,14.04
2018-12-06T18:04:28.256Z,13.99
2018-12-06T18:06:56.980Z,14.03
2018-12-06T18:09:25.819Z,13.99
2018-12-06T18:11:54.487Z,14.02
2018-12-06T18:14:23.155Z,14.05
2018-12-06T18:16:51.954Z,14.03
2018-12-06T18:19:20.786Z,14.08
2018-12-06T18:21:49.494Z,14.12
2018-12-06T18:24:18.964Z,14.16
2018-12-06T18:26:47.723Z,14.26
2018-12-06T18:29:16.506Z,14.25
2018-12-06T18:31:45.299Z,14.23
2018-12-06T18:34:14.091Z,14.19
2018-12-06T18:36:42.814Z,14.23
2018-12-06T18:39:11.571Z,14.24
2018-12-06T18:41:40.274Z,14.26
2018-12-06T18:44:09.056Z,14.27
2018-12-06T18:46:37.843Z,14.20
2018-12-06T18:49:06.555Z,14.24
2018-12-06T18:51:35.283Z,14.25
2018-12-06T18:54:04.067Z,14.22
2018-12-06T18:56:32.856Z,14.21
2018-12-06T18:59:01.675Z,14.19
2018-12-06T19:01:30.391Z,14.10
2018-12-06T19:03:59.969Z,14.17
2018-12-06T19:06:28.680Z,14.03
2018-12-06T19:08:57.398Z,14.08
2018-12-06T19:11:26.149Z,14.07
2018-12-06T19:13:54.883Z,14.09
2018-12-06T19:16:23.682Z,13.83
2018-12-06T19:18:52.382Z,14.05
2018-12-06T19:21:21.109Z,13.98
2018-12-06T19:23:49.811Z,14.07
2018-12-06T19:26:19.340Z,13.97
2018-12-06T19:28:48.051Z,13.95
2018-12-06T19:31:16.823Z,14.02
2018-12-06T19:33:45.583Z,14.04
2018-12-06T19:36:14.319Z,14.10
2018-12-06T19:38:43.039Z,14.06
2018-12-06T19:41:11.840Z,14.12
2018-12-06T19:43:41.557Z,14.03
2018-12-06T19:46:10.334Z,14.04
2018-12-06T19:48:39.064Z,14.09
2018-12-06T19:51:07.776Z,14.15
2018-12-06T19:53:36.538Z,14.13
2018-12-06T19:56:05.354Z,14.00
2018-12-06T19:58:34.076Z,14.03
2018-12-06T20:01:02.824Z,13.91
2018-12-06T20:03:32.550Z,14.02
2018-12-06T20:06:01.331Z,14.02
2018-12-06T20:08:30.060Z,14.05
2018-12-06T20:10:58.802Z,14.09
2018-12-06T20:13:27.598Z,14.18
2018-12-06T20:15:56.331Z,14.26
2018-12-06T20:18:25.253Z,14.16
2018-12-06T20:20:54.043Z,14.20
2018-12-06T20:23:22.875Z,14.15
2018-12-06T20:25:51.696Z,14.10
2018-12-06T20:28:26.329Z,14.09
2018-12-06T20:30:51.011Z,14.13
2018-12-06T20:33:19.739Z,14.01
2018-12-06T20:35:48.510Z,14.00
2018-12-06T20:38:17.292Z,14.04
2018-12-06T20:40:46.111Z,14.06
2018-12-06T20:43:14.836Z,14.03
2018-12-06T20:45:43.592Z,14.07
2018-12-06T20:48:12.268Z,14.01
2018-12-06T20:50:41.043Z,13.94
2018-12-06T20:53:09.710Z,14.03
2018-12-06T20:55:38.479Z,14.08
2018-12-06T20:58:14.679Z,13.95
2018-12-06T21:00:37.932Z,14.02
2018-12-06T21:03:06.754Z,14.07
2018-12-06T21:05:35.551Z,14.14
2018-12-06T21:08:04.349Z,14.18
2018-12-06T21:10:33.039Z,14.20
2018-12-06T21:13:02.202Z,14.18
2018-12-06T21:15:30.912Z,14.17
2018-12-06T21:17:59.622Z,14.19
2018-12-06T21:20:28.466Z,14.11
2018-12-06T21:22:58.027Z,14.09
2018-12-06T21:25:26.770Z,14.11
2018-12-06T21:27:55.507Z,14.21
2018-12-06T21:30:24.262Z,14.13
2018-12-06T21:32:54.077Z,14.07
2018-12-06T21:35:22.874Z,14.06
2018-12-06T21:37:51.854Z,14.08
2018-12-06T21:40:20.700Z,14.11
2018-12-06T21:42:49.457Z,13.74
2018-12-06T21:45:18.203Z,13.98
2018-12-06T21:47:48.027Z,14.03
2018-12-06T21:50:16.792Z,14.13
2018-12-06T21:52:45.507Z,14.09
2018-12-06T21:55:14.178Z,14.08
2018-12-06T21:57:42.902Z,14.01
2018-12-06T22:00:11.938Z,13.98
2018-12-06T22:02:40.799Z,14.12
2018-12-06T22:05:09.571Z,14.16
2018-12-06T22:07:38.391Z,14.18
2018-12-06T22:10:08.218Z,14.19
2018-12-06T22:12:36.939Z,14.20
2018-12-06T22:15:06.039Z,14.33
2018-12-06T22:17:34.702Z,14.34
2018-12-06T22:20:03.763Z,14.29
2018-12-06T22:22:32.590Z,14.11
2018-12-06T22:25:01.310Z,14.11
2018-12-06T22:27:30.006Z,14.03
2018-12-06T22:29:58.716Z,14.14
2018-12-06T22:32:27.572Z,14.10
2018-12-06T22:34:56.432Z,14.05
2018-12-06T22:37:25.156Z,14.06
2018-12-06T22:39:53.853Z,14.02
2018-12-06T22:42:22.567Z,14.12
2018-12-06T22:44:57.631Z,14.15
2018-12-06T22:47:27.353Z,13.85
2018-12-06T22:49:56.071Z,14.04
2018-12-06T22:52:24.793Z,14.09
2018-12-06T22:54:53.504Z,14.21
2018-12-06T22:57:22.206Z,14.04
2018-12-06T22:59:50.947Z,13.84
2018-12-06T23:02:19.666Z,14.11
2018-12-06T23:04:48.404Z,14.17
2018-12-06T23:07:18.082Z,14.06
2018-12-06T23:09:46.839Z,14.00
2018-12-06T23:12:15.552Z,14.25
2018-12-06T23:14:44.258Z,14.27
2018-12-06T23:17:12.987Z,14.27
2018-12-06T23:19:41.718Z,14.33
2018-12-06T23:22:10.479Z,14.36
2018-12-06T23:24:39.287Z,14.25
2018-12-06T23:27:08.000Z,14.44
2018-12-06T23:29:36.792Z,14.45
2018-12-06T23:32:05.580Z,14.35
2018-12-06T23:34:34.314Z,14.42
2018-12-06T23:37:03.038Z,14.42
2018-12-06T23:39:31.730Z,14.29
2018-12-06T23:42:00.459Z,14.25
2018-12-06T23:44:29.195Z,14.41
2018-12-06T23:46:57.866Z,14.41
2018-12-06T23:49:26.543Z,14.26
2018-12-06T23:51:55.368Z,14.15
2018-12-06T23:54:24.107Z,14.08
2018-12-06T23:56:52.880Z,14.17
2018-12-06T23:59:21.675Z,14.06
